Time;durP1;ratioP1;P1;durP2;ratioP2;P2;SDS_P1;SDS_P2;PMS_P1;PMS_P2;Temp;Humidity;BMP_temperature;BMP_pressure;BME280_temperature;BME280_humidity;BME280_pressure;Samples;Min_cycle;Max_cycle;Signal;HPM_P1;HPM_P2
2022/07/04 00:01:10;;;;;;;13.00;7.72;;;27.20;99.90;;;;;;5125481;27;20080;-52
2022/07/04 00:03:36;;;;;;;11.00;6.55;;;27.20;99.90;;;;;;5092967;27;20115;-53
2022/07/04 00:06:02;;;;;;;11.07;7.07;;;27.10;99.90;;;;;;5124468;27;20019;-52
2022/07/04 00:08:28;;;;;;;10.10;7.03;;;26.80;99.90;;;;;;5108150;27;20464;-51
2022/07/04 00:10:53;;;;;;;11.27;7.63;;;26.80;99.90;;;;;;5124455;27;20117;-53
2022/07/04 00:13:19;;;;;;;9.85;6.93;;;;;;;;;;5078106;27;20028;-53
2022/07/04 00:15:45;;;;;;;8.43;7.43;;;26.60;99.90;;;;;;5126470;27;20081;-53
2022/07/04 00:18:11;;;;;;;9.23;7.03;;;;;;;;;;5126278;27;20027;-51
2022/07/04 00:20:37;;;;;;;12.05;7.15;;;;;;;;;;5125765;27;20027;-51
2022/07/04 00:23:03;;;;;;;8.75;6.97;;;;;;;;;;5123847;27;20462;-54
2022/07/04 00:25:29;;;;;;;9.88;6.60;;;;;;;;;;5126623;27;20038;-54
2022/07/04 00:27:56;;;;;;;7.90;6.97;;;;;;;;;;5129808;27;20134;-52
2022/07/04 00:30:22;;;;;;;8.38;6.93;;;;;;;;;;5129382;27;20045;-54
2022/07/04 00:32:48;;;;;;;10.98;7.88;;;;;;;;;;5124899;27;20114;-52
2022/07/04 00:35:14;;;;;;;11.63;7.80;;;;;;;;;;5123307;27;20359;-52
2022/07/04 00:37:40;;;;;;;9.65;7.10;;;;;;;;;;5120266;27;20064;-51
2022/07/04 00:40:06;;;;;;;9.32;7.57;;;;;;;;;;5126379;27;20525;-54
2022/07/04 00:42:32;;;;;;;12.65;8.07;;;;;;;;;;5124012;27;20027;-49
2022/07/04 00:44:59;;;;;;;11.65;7.90;;;;;;;;;;5126193;27;20053;-50
2022/07/04 00:47:25;;;;;;;9.85;7.38;;;;;;;;;;5112684;27;20043;-50
2022/07/04 00:49:54;;;;;;;9.73;7.13;;;;;;;;;;5131406;27;20044;-55
2022/07/04 00:52:20;;;;;;;9.13;7.47;;;;;;;;;;5128691;27;20032;-54
2022/07/04 00:54:47;;;;;;;11.15;7.50;;;;;;;;;;5095916;27;20035;-51
2022/07/04 00:57:13;;;;;;;10.35;7.75;;;;;;;;;;5126637;27;20138;-52
2022/07/04 00:59:39;;;;;;;9.00;7.32;;;;;;;;;;5130271;27;20031;-50
2022/07/04 01:02:06;;;;;;;11.02;7.97;;;;;;;;;;5127812;27;20539;-51
2022/07/04 01:04:32;;;;;;;10.07;7.80;;;;;;;;;;5121887;27;20024;-54
2022/07/04 01:07:01;;;;;;;9.10;7.18;;;;;;;;;;5128840;27;20055;-55
2022/07/04 01:09:27;;;;;;;11.95;7.70;;;;;;;;;;5090813;27;20051;-53
2022/07/04 01:11:53;;;;;;;13.55;8.38;;;;;;;;;;5126039;27;20106;-53
2022/07/04 01:14:20;;;;;;;9.43;7.38;;;;;;;;;;5126435;27;20039;-51
2022/07/04 01:16:46;;;;;;;11.77;8.00;;;;;;;;;;5124802;27;21648;-52
2022/07/04 01:19:12;;;;;;;10.38;7.70;;;;;;;;;;5089206;28;20101;-53
2022/07/04 01:21:39;;;;;;;12.43;7.25;;;;;;;;;;5109189;28;20130;-52
2022/07/04 01:24:05;;;;;;;9.23;7.85;;;;;;;;;;5127113;27;20035;-51
2022/07/04 01:26:31;;;;;;;9.00;7.75;;;;;;;;;;5092488;27;20063;-51
2022/07/04 01:28:57;;;;;;;9.60;7.95;;;;;;;;;;5131171;27;20470;-51
2022/07/04 01:31:23;;;;;;;10.55;7.43;;;;;;;;;;5119491;28;20483;-52
2022/07/04 01:33:49;;;;;;;11.10;7.90;;;;;;;;;;5125876;28;20031;-53
2022/07/04 01:36:16;;;;;;;10.45;8.05;;;;;;;;;;5124306;28;20067;-50
2022/07/04 01:38:42;;;;;;;10.38;7.60;;;;;;;;;;5125760;28;20493;-52
2022/07/04 01:41:08;;;;;;;8.43;7.40;;;;;;;;;;5125828;27;20023;-52
2022/07/04 01:43:35;;;;;;;9.57;8.05;;;;;;;;;;5127889;27;20023;-51
2022/07/04 01:46:01;;;;;;;10.90;8.20;;;;;;;;;;5132455;27;20035;-53
2022/07/04 01:48:27;;;;;;;20.00;7.88;;;;;;;;;;5130087;27;20058;-54
2022/07/04 01:50:53;;;;;;;12.25;7.72;;;;;;;;;;5129673;27;20463;-53
2022/07/04 01:53:19;;;;;;;9.68;7.95;;;;;;;;;;5131786;27;20382;-52
2022/07/04 01:55:45;;;;;;;9.13;7.72;;;;;;;;;;5130575;27;20031;-51
2022/07/04 01:58:14;;;;;;;11.43;8.38;;;;;;;;;;5131829;27;20047;-55
2022/07/04 02:03:24;;;;;;;15.27;8.05;;;26.20;99.90;;;;;;5126623;27;20096;-51
2022/07/04 02:05:49;;;;;;;9.75;7.75;;;26.20;99.90;;;;;;5096956;28;20052;-52
2022/07/04 02:08:15;;;;;;;8.82;7.93;;;26.50;99.90;;;;;;5132525;27;20104;-54
2022/07/04 02:10:41;;;;;;;10.77;8.10;;;26.20;99.90;;;;;;5123620;27;20028;-53
2022/07/04 02:13:13;;;;;;;11.95;7.63;;;26.20;99.90;;;;;;5129725;27;20106;-53
2022/07/04 02:15:41;;;;;;;10.23;7.68;;;26.20;99.90;;;;;;5109109;27;20027;-52
2022/07/04 02:18:09;;;;;;;11.13;7.43;;;26.30;99.90;;;;;;5132716;27;20035;-51
2022/07/04 02:20:36;;;;;;;14.93;9.10;;;26.30;99.90;;;;;;5132522;27;20023;-51
2022/07/04 02:23:03;;;;;;;12.82;8.23;;;26.30;99.90;;;;;;5127352;27;20089;-54
2022/07/04 02:25:29;;;;;;;8.07;7.28;;;26.30;99.90;;;;;;5115706;27;20035;-50
2022/07/04 02:27:55;;;;;;;10.25;7.40;;;26.30;99.90;;;;;;5092136;27;20051;-54
2022/07/04 02:30:22;;;;;;;9.70;7.78;;;26.30;99.90;;;;;;5092426;28;20527;-51
2022/07/04 02:32:47;;;;;;;9.93;7.95;;;26.20;99.90;;;;;;5076399;28;20096;-53
2022/07/04 02:35:13;;;;;;;13.45;7.72;;;26.70;99.90;;;;;;5092625;28;20504;-50
2022/07/04 02:37:39;;;;;;;10.55;7.15;;;26.20;99.90;;;;;;5092369;28;20123;-52
2022/07/04 02:40:06;;;;;;;11.73;7.07;;;26.20;99.90;;;;;;5032656;28;20428;-51
2022/07/04 02:42:36;;;;;;;8.40;7.43;;;26.20;99.90;;;;;;4998767;28;20041;-49
2022/07/04 02:45:04;;;;;;;15.05;8.10;;;26.10;99.90;;;;;;5015576;28;20046;-53
2022/07/04 02:47:30;;;;;;;9.07;7.07;;;26.30;99.90;;;;;;5032701;28;20116;-53
2022/07/04 02:49:55;;;;;;;9.13;8.00;;;26.20;99.90;;;;;;5031748;28;20220;-51
2022/07/04 02:52:21;;;;;;;9.20;7.18;;;26.10;99.90;;;;;;5031922;28;20109;-51
2022/07/04 02:54:48;;;;;;;14.82;7.70;;;26.10;99.90;;;;;;5032547;28;20508;-52
2022/07/04 02:57:14;;;;;;;9.50;6.75;;;26.10;99.90;;;;;;5031513;28;20205;-52
2022/07/04 02:59:40;;;;;;;10.90;6.97;;;26.20;99.90;;;;;;5031563;28;20037;-52
2022/07/04 03:02:06;;;;;;;11.23;7.97;;;26.50;99.90;;;;;;5063991;28;20052;-52
2022/07/04 03:04:35;;;;;;;15.05;8.05;;;26.20;99.90;;;;;;5053949;28;20037;-53
2022/07/04 03:07:01;;;;;;;10.55;7.65;;;26.20;99.90;;;;;;5012808;28;20131;-52
2022/07/04 03:09:27;;;;;;;10.77;6.95;;;26.30;99.90;;;;;;5071171;28;20603;-50
2022/07/04 03:11:53;;;;;;;10.75;6.78;;;25.90;99.90;;;;;;5122621;27;20044;-53
2022/07/04 03:14:19;;;;;;;9.25;7.25;;;26.30;99.90;;;;;;5127924;27;20080;-51
2022/07/04 03:16:44;;;;;;;8.00;7.20;;;26.60;99.90;;;;;;5096062;27;20071;-54
2022/07/04 03:19:10;;;;;;;12.63;7.68;;;26.30;99.90;;;;;;5131063;27;20114;-54
2022/07/04 03:21:36;;;;;;;10.05;7.80;;;26.40;99.90;;;;;;5126517;27;20085;-51
2022/07/04 03:24:02;;;;;;;11.45;8.35;;;26.40;99.90;;;;;;5126312;27;20427;-52
2022/07/04 03:26:30;;;;;;;10.02;8.73;;;26.40;99.90;;;;;;5127953;27;20068;-54
2022/07/04 03:28:57;;;;;;;11.82;8.20;;;26.40;99.90;;;;;;5126055;27;20027;-52
2022/07/04 03:31:23;;;;;;;13.05;9.35;;;26.40;99.90;;;;;;5128165;27;20031;-55
2022/07/04 03:33:50;;;;;;;13.13;10.25;;;26.70;99.90;;;;;;5100270;27;20063;-54
2022/07/04 03:36:16;;;;;;;14.35;10.50;;;26.30;99.90;;;;;;5131320;27;20035;-54
2022/07/04 03:38:42;;;;;;;12.43;10.48;;;26.20;99.90;;;;;;5132980;27;20083;-51
2022/07/04 03:41:12;;;;;;;13.00;11.27;;;26.10;99.90;;;;;;5133286;27;20019;-56
2022/07/04 03:43:38;;;;;;;13.27;11.05;;;25.90;99.90;;;;;;5126278;27;20032;-52
2022/07/04 03:46:04;;;;;;;14.05;11.18;;;26.40;99.90;;;;;;5131308;27;20083;-52
2022/07/04 03:48:30;;;;;;;13.48;11.18;;;26.10;99.90;;;;;;5129972;27;20046;-54
2022/07/04 03:50:57;;;;;;;12.35;9.85;;;;;;;;;;5130724;27;20478;-51
2022/07/04 03:53:23;;;;;;;16.15;9.63;;;;;;;;;;5110313;27;20042;-53
2022/07/04 03:55:49;;;;;;;14.95;10.07;;;;;;;;;;5126202;27;20064;-51
2022/07/04 03:58:15;;;;;;;12.05;10.27;;;;;;;;;;5128975;27;20146;-53
2022/07/04 04:00:41;;;;;;;12.50;10.30;;;;;;;;;;5129763;27;20503;-54
2022/07/04 04:05:26;;;;;;;14.68;10.23;;;;;;;;;;5123646;27;20531;-54
2022/07/04 04:05:54;;;;;;;12.90;10.07;;;;;;;;;;5126661;27;20066;-51
2022/07/04 04:08:20;;;;;;;12.48;8.68;;;;;;;;;;5125239;27;20027;-55
2022/07/04 04:10:47;;;;;;;13.02;8.85;;;;;;;;;;5129532;27;20039;-52
2022/07/04 04:13:13;;;;;;;11.70;9.15;;;;;;;;;;5126606;27;20047;-52
2022/07/04 04:15:39;;;;;;;15.23;9.40;;;;;;;;;;5130440;27;20031;-55
2022/07/04 04:18:05;;;;;;;11.60;8.65;;;25.90;99.90;;;;;;5125519;27;20030;-54
2022/07/04 04:20:30;;;;;;;12.57;10.32;;;26.00;99.90;;;;;;5122291;27;20088;-54
2022/07/04 04:22:56;;;;;;;11.07;8.05;;;26.00;99.90;;;;;;5129517;27;20031;-52
2022/07/04 04:25:22;;;;;;;10.73;8.32;;;26.00;99.90;;;;;;5128480;27;20031;-54
2022/07/04 04:27:48;;;;;;;11.65;7.97;;;26.10;99.90;;;;;;5111023;27;20039;-57
2022/07/04 04:30:14;;;;;;;17.45;8.48;;;26.10;99.90;;;;;;5127078;27;20119;-54
2022/07/04 04:32:40;;;;;;;12.45;7.43;;;26.20;99.90;;;;;;5127467;27;20107;-53
2022/07/04 04:35:06;;;;;;;10.07;7.55;;;26.20;99.90;;;;;;5131164;27;20023;-52
2022/07/04 04:37:32;;;;;;;12.30;8.35;;;26.10;99.90;;;;;;5130408;27;20020;-54
2022/07/04 04:39:57;;;;;;;10.82;8.50;;;26.00;99.90;;;;;;5092962;27;20057;-53
2022/07/04 04:42:23;;;;;;;12.00;8.88;;;25.90;99.90;;;;;;5127532;27;20065;-54
2022/07/04 04:44:50;;;;;;;13.77;9.10;;;26.00;99.90;;;;;;5093453;27;20054;-53
2022/07/04 04:47:16;;;;;;;14.05;10.23;;;25.80;99.90;;;;;;5095913;27;20096;-53
2022/07/04 04:49:41;;;;;;;14.73;9.73;;;25.90;99.90;;;;;;5129393;27;20362;-54
2022/07/04 04:52:07;;;;;;;11.48;8.65;;;26.00;99.90;;;;;;5077207;27;20386;-51
2022/07/04 04:54:34;;;;;;;12.57;8.48;;;25.90;99.90;;;;;;5127570;27;20054;-51
2022/07/04 04:57:00;;;;;;;12.40;8.15;;;25.90;99.90;;;;;;5130970;27;20050;-51
2022/07/04 04:59:27;;;;;;;11.82;8.88;;;25.90;99.90;;;;;;5130773;27;20023;-52
2022/07/04 05:01:58;;;;;;;9.55;8.25;;;25.90;99.90;;;;;;5122323;27;20053;-52
2022/07/04 05:04:24;;;;;;;9.52;8.00;;;26.00;99.90;;;;;;5091575;27;20050;-52
2022/07/04 05:06:50;;;;;;;11.57;8.35;;;26.00;99.90;;;;;;5095896;27;20039;-49
2022/07/04 05:09:16;;;;;;;12.00;8.63;;;26.20;99.90;;;;;;5123368;27;20042;-54
2022/07/04 05:11:41;;;;;;;10.95;8.05;;;26.10;99.90;;;;;;5127895;27;20382;-50
2022/07/04 05:14:07;;;;;;;9.55;7.50;;;26.20;99.90;;;;;;5092855;27;20058;-53
2022/07/04 05:16:37;;;;;;;9.90;7.30;;;26.20;99.90;;;;;;5090617;28;20035;-53
2022/07/04 05:19:02;;;;;;;13.63;8.57;;;26.20;99.90;;;;;;5080866;27;20061;-54
2022/07/04 05:21:28;;;;;;;9.88;7.95;;;26.30;99.90;;;;;;5126962;27;20424;-53
2022/07/04 05:23:55;;;;;;;12.75;8.10;;;26.40;99.90;;;;;;5094536;28;20043;-53
2022/07/04 05:26:21;;;;;;;10.10;7.35;;;26.20;99.90;;;;;;5129549;27;20077;-53
2022/07/04 05:28:47;;;;;;;8.95;7.88;;;26.20;99.90;;;;;;5122403;27;20039;-52
2022/07/04 05:31:12;;;;;;;14.60;6.97;;;26.00;99.90;;;;;;5129076;27;20034;-51
2022/07/04 05:33:38;;;;;;;15.20;8.68;;;26.00;99.90;;;;;;5122595;28;20027;-50
2022/07/04 05:36:04;;;;;;;11.48;8.15;;;;;;;;;;5075716;28;20035;-53
2022/07/04 05:38:30;;;;;;;13.48;8.23;;;;;;;;;;5123605;28;20031;-54
2022/07/04 05:40:58;;;;;;;11.85;8.32;;;;;;;;;;5092541;28;20524;-52
2022/07/04 05:43:27;;;;;;;11.55;8.60;;;;;;;;;;5129640;28;20023;-51
2022/07/04 05:45:53;;;;;;;9.82;8.77;;;;;;;;;;5123192;28;20032;-51
2022/07/04 05:48:19;;;;;;;13.70;9.32;;;;;;;;;;5126863;28;20035;-53
2022/07/04 05:50:45;;;;;;;12.77;9.35;;;;;;;;;;5131306;28;20089;-53
2022/07/04 05:53:11;;;;;;;12.07;8.55;;;;;;;;;;5088522;28;20032;-52
2022/07/04 05:55:38;;;;;;;14.27;9.40;;;;;;;;;;5106193;28;20060;-50
2022/07/04 05:58:04;;;;;;;13.02;8.43;;;;;;;;;;5124900;28;20039;-49
2022/07/04 06:00:31;;;;;;;9.95;8.60;;;;;;;;;;5094108;28;20039;-51
2022/07/04 06:02:57;;;;;;;11.02;8.80;;;;;;;;;;5124402;28;20037;-53
2022/07/04 06:05:24;;;;;;;17.63;9.50;;;;;;;;;;5108132;28;20047;-52
2022/07/04 06:07:50;;;;;;;10.95;8.73;;;;;;;;;;5127886;28;20039;-49
2022/07/04 06:10:17;;;;;;;17.88;9.73;;;;;;;;;;5123062;27;20032;-51
2022/07/04 06:12:43;;;;;;;13.23;8.82;;;;;;;;;;5118775;28;20031;-52
2022/07/04 06:15:09;;;;;;;11.98;9.85;;;;;;;;;;5130509;28;20114;-52
2022/07/04 06:17:36;;;;;;;12.50;9.27;;;;;;;;;;5088428;28;20111;-51
2022/07/04 06:20:03;;;;;;;13.20;8.82;;;;;;;;;;5127439;28;20498;-53
2022/07/04 06:22:29;;;;;;;11.98;9.27;;;;;;;;;;5128715;28;20023;-50
2022/07/04 06:24:55;;;;;;;13.48;9.93;;;;;;;;;;5092593;28;20040;-52
2022/07/04 06:27:22;;;;;;;13.98;10.02;;;;;;;;;;5107019;28;20515;-53
2022/07/04 06:29:47;;;;;;;15.23;9.57;;;26.70;99.90;;;;;;5091551;27;20176;-49
2022/07/04 06:32:13;;;;;;;10.48;8.48;;;26.80;99.90;;;;;;5123098;27;20115;-54
2022/07/04 06:37:24;;;;;;;21.20;10.68;;;26.30;99.90;;;;;;5124386;27;20039;-52
2022/07/04 06:39:50;;;;;;;19.40;9.80;;;26.40;99.90;;;;;;5127638;27;20670;-52
2022/07/04 06:42:15;;;;;;;21.00;10.73;;;26.50;99.90;;;;;;5086159;28;20040;-51
2022/07/04 06:44:41;;;;;;;13.23;9.13;;;26.30;99.90;;;;;;5089545;28;20032;-51
2022/07/04 06:47:07;;;;;;;10.68;9.23;;;;;;;;;;5091190;28;20533;-53
2022/07/04 06:49:33;;;;;;;11.57;8.98;;;26.40;99.90;;;;;;5088254;28;20638;-55
2022/07/04 06:51:59;;;;;;;14.07;9.55;;;26.60;99.90;;;;;;5050896;28;20052;-55
2022/07/04 06:54:25;;;;;;;19.60;9.63;;;26.50;99.90;;;;;;5016190;28;20033;-57
2022/07/04 06:56:51;;;;;;;14.93;8.50;;;27.00;99.90;;;;;;5044468;28;20049;-54
2022/07/04 06:59:16;;;;;;;11.45;8.95;;;26.60;99.90;;;;;;5047824;28;20125;-57
2022/07/04 07:01:42;;;;;;;17.13;8.55;;;;;;;;;;5047325;28;20053;-54
2022/07/04 07:04:08;;;;;;;12.10;8.80;;;26.70;99.90;;;;;;5041617;28;20049;-57
2022/07/04 07:06:34;;;;;;;12.23;9.45;;;26.80;99.90;;;;;;5030891;28;20103;-56
2022/07/04 07:09:00;;;;;;;12.02;9.50;;;26.80;99.90;;;;;;5015276;28;20107;-52
2022/07/04 07:11:26;;;;;;;18.45;9.20;;;26.80;99.90;;;;;;5011148;28;20037;-54
2022/07/04 07:13:52;;;;;;;14.05;9.45;;;26.80;99.90;;;;;;4996981;28;20493;-55
2022/07/04 07:16:20;;;;;;;16.27;10.63;;;26.80;99.90;;;;;;4992446;28;20039;-58
2022/07/04 07:18:46;;;;;;;13.07;10.02;;;26.80;99.90;;;;;;4954096;28;20050;-56
2022/07/04 07:21:12;;;;;;;16.35;10.00;;;26.80;99.90;;;;;;4953101;28;20047;-54
2022/07/04 07:23:39;;;;;;;13.35;9.52;;;26.90;99.90;;;;;;4952366;28;20043;-55
2022/07/04 07:26:05;;;;;;;13.73;9.82;;;27.00;99.90;;;;;;4953458;28;20066;-52
2022/07/04 07:28:31;;;;;;;16.13;9.93;;;27.00;99.90;;;;;;4959428;28;20052;-55
2022/07/04 07:30:57;;;;;;;13.75;10.90;;;27.00;99.90;;;;;;5011300;28;20065;-52
2022/07/04 07:33:22;;;;;;;11.43;9.82;;;27.00;99.90;;;;;;4995349;28;20041;-55
2022/07/04 07:35:48;;;;;;;11.77;10.20;;;27.10;99.90;;;;;;5008621;28;20038;-56
2022/07/04 07:38:14;;;;;;;15.23;9.88;;;27.10;99.90;;;;;;5051556;28;20483;-53
2022/07/04 07:40:40;;;;;;;13.38;10.23;;;27.20;99.90;;;;;;5067845;28;20028;-54
2022/07/04 07:43:06;;;;;;;14.75;10.02;;;27.30;99.90;;;;;;5085506;28;20032;-55
2022/07/04 07:45:32;;;;;;;16.70;9.68;;;27.30;99.90;;;;;;5091812;28;20174;-53
2022/07/04 07:47:58;;;;;;;12.90;9.93;;;27.50;99.90;;;;;;5091961;28;20031;-54
2022/07/04 07:50:23;;;;;;;12.18;8.73;;;27.50;99.90;;;;;;5088239;28;20134;-54
2022/07/04 07:52:49;;;;;;;10.25;8.60;;;27.60;99.90;;;;;;5089806;28;20110;-54
2022/07/04 07:55:15;;;;;;;16.23;9.10;;;27.70;99.90;;;;;;5092359;27;20422;-53
2022/07/04 07:57:41;;;;;;;9.25;8.32;;;27.70;99.90;;;;;;5131258;27;20096;-54
2022/07/04 08:00:07;;;;;;;10.35;8.05;;;27.80;99.90;;;;;;5129122;27;20437;-56
2022/07/04 08:05:17;;;;;;;9.73;7.45;;;28.10;99.90;;;;;;5123181;27;20035;-56
2022/07/04 08:07:43;;;;;;;8.23;7.30;;;28.20;99.90;;;;;;5130340;27;20027;-52
2022/07/04 08:10:09;;;;;;;10.90;7.50;;;28.40;99.90;;;;;;5123698;27;20716;-56
2022/07/04 08:12:35;;;;;;;9.77;7.57;;;28.60;99.90;;;;;;5097439;27;20043;-53
2022/07/04 08:15:01;;;;;;;9.35;7.50;;;;;;;;;;5120213;27;20064;-53
2022/07/04 08:17:28;;;;;;;12.25;7.50;;;;;;;;;;5121200;27;20023;-52
2022/07/04 08:19:54;;;;;;;10.25;8.48;;;;;;;;;;5126436;27;20118;-56
2022/07/04 08:22:19;;;;;;;8.98;7.07;;;29.40;99.90;;;;;;5125311;27;20023;-56
2022/07/04 08:24:45;;;;;;;8.63;6.32;;;29.70;99.90;;;;;;5128298;27;20023;-53
2022/07/04 08:27:12;;;;;;;10.43;6.97;;;30.10;99.90;;;;;;5087278;27;20043;-55
2022/07/04 08:29:38;;;;;;;15.70;6.50;;;30.20;99.90;;;;;;5128418;27;20043;-52
2022/07/04 08:32:07;;;;;;;9.73;6.57;;;30.80;99.90;;;;;;5127724;27;20042;-56
2022/07/04 08:34:33;;;;;;;10.45;6.45;;;30.80;99.90;;;;;;5124286;27;20039;-57
2022/07/04 08:36:59;;;;;;;12.57;6.13;;;;;;;;;;5123996;27;20059;-56
2022/07/04 08:39:25;;;;;;;8.02;5.50;;;;;;;;;;5126088;27;20041;-57
2022/07/04 08:41:52;;;;;;;10.35;5.80;;;;;;;;;;5129700;27;20383;-53
2022/07/04 08:44:21;;;;;;;10.50;5.22;;;31.40;99.90;;;;;;5127130;27;20130;-56
2022/07/04 08:46:52;;;;;;;12.98;6.80;;;31.60;99.90;;;;;;5128108;27;20416;-56
2022/07/04 08:49:21;;;;;;;9.85;6.25;;;;;;;;;;5127331;27;20394;-55
2022/07/04 08:52:05;;;;;;;9.45;5.90;;;32.00;99.90;;;;;;5128880;27;20083;-55
2022/07/04 09:00:06;;;;;;;7.88;5.63;;;32.70;99.90;;;;;;5061586;28;20445;-52
2022/07/04 09:02:33;;;;;;;11.68;6.07;;;;;;;;;;5072831;28;20051;-54
2022/07/04 09:05:00;;;;;;;7.03;6.03;;;;;;;;;;5089819;28;20039;-55
2022/07/04 09:07:28;;;;;;;9.10;5.72;;;32.90;99.90;;;;;;5089516;28;20028;-58
2022/07/04 09:09:56;;;;;;;9.35;6.03;;;;;;;;;;5090576;28;20070;-55
2022/07/04 09:12:22;;;;;;;9.93;5.80;;;33.10;99.90;;;;;;5089489;28;20051;-54
2022/07/04 09:14:49;;;;;;;10.38;5.85;;;33.00;99.90;;;;;;5088316;28;20038;-56
2022/07/04 09:17:15;;;;;;;10.32;5.57;;;33.20;99.90;;;;;;5090218;28;20036;-55
2022/07/04 09:19:41;;;;;;;8.15;5.95;;;33.40;99.90;;;;;;5055837;28;20594;-54
2022/07/04 09:22:11;;;;;;;13.38;5.60;;;33.50;99.90;;;;;;5089562;28;20122;-55
2022/07/04 09:24:54;;;;;;;8.55;5.60;;;33.40;99.90;;;;;;5089252;28;20126;-53
2022/07/04 09:27:33;;;;;;;11.07;5.07;;;33.70;99.90;;;;;;5089465;28;20455;-53
2022/07/04 09:29:59;;;;;;;8.65;5.53;;;34.00;99.90;;;;;;5089426;28;20071;-56
2022/07/04 09:32:39;;;;;;;5.72;4.72;;;;;;;;;;5114739;28;20042;-52
2022/07/04 09:35:07;;;;;;;9.50;4.97;;;;;;;;;;5125912;28;20088;-54
2022/07/04 09:38:01;;;;;;;6.65;5.10;;;;;;;;;;5128467;28;20562;-57
2022/07/04 09:40:29;;;;;;;5.95;4.65;;;;;;;;;;5048601;28;20040;-55
2022/07/04 09:42:57;;;;;;;7.28;4.60;;;;;;;;;;5047179;28;20033;-54
2022/07/04 09:45:24;;;;;;;8.50;4.95;;;;;;;;;;5045778;28;20524;-57
2022/07/04 09:47:54;;;;;;;6.82;4.65;;;34.60;97.90;;;;;;5049461;28;20551;-54
2022/07/04 09:50:20;;;;;;;9.55;5.05;;;34.70;97.80;;;;;;5032678;28;20048;-53
2022/07/04 09:52:50;;;;;;;7.40;4.22;;;34.90;97.50;;;;;;5048649;28;20049;-53
2022/07/04 09:55:33;;;;;;;6.55;5.05;;;35.10;97.40;;;;;;5048829;28;20197;-57
2022/07/04 09:58:04;;;;;;;10.77;5.47;;;35.30;96.70;;;;;;5013742;28;20041;-54
2022/07/04 10:00:34;;;;;;;9.32;5.32;;;35.20;95.50;;;;;;5048769;28;20036;-54
2022/07/04 10:03:22;;;;;;;6.17;4.70;;;35.40;95.90;;;;;;5049063;28;20365;-54
2022/07/04 10:06:12;;;;;;;9.23;5.45;;;35.50;94.80;;;;;;5047659;28;20114;-56
2022/07/04 10:08:43;;;;;;;7.43;4.40;;;35.80;95.10;;;;;;5004621;28;20132;-56
2022/07/04 10:11:10;;;;;;;12.57;4.70;;;36.10;95.00;;;;;;5052455;28;20175;-54
2022/07/04 10:13:36;;;;;;;7.43;4.35;;;35.90;93.40;;;;;;5053109;28;20029;-56
2022/07/04 10:16:02;;;;;;;19.65;5.65;;;35.80;93.10;;;;;;5051679;27;20028;-54
2022/07/04 10:18:29;;;;;;;11.93;5.22;;;36.00;94.10;;;;;;5133160;27;20030;-56
2022/07/04 10:20:56;;;;;;;6.05;4.53;;;35.80;93.00;;;;;;5124458;27;20028;-55
2022/07/04 10:23:23;;;;;;;7.32;4.70;;;35.40;93.00;;;;;;5130031;27;20027;-55
2022/07/04 10:25:50;;;;;;;11.90;5.65;;;35.60;93.50;;;;;;5131778;27;20035;-55
2022/07/04 10:28:17;;;;;;;11.23;5.05;;;35.60;92.80;;;;;;5125585;27;20061;-52
2022/07/04 10:30:47;;;;;;;11.20;4.82;;;36.20;92.50;;;;;;5128553;27;20019;-55
2022/07/04 10:33:15;;;;;;;11.45;5.97;;;36.00;91.80;;;;;;5130488;27;20034;-52
2022/07/04 10:35:53;;;;;;;12.02;4.80;;;35.90;92.00;;;;;;5129894;27;20031;-49
2022/07/04 10:38:20;;;;;;;10.15;6.22;;;36.10;92.30;;;;;;5111240;27;20039;-59
2022/07/04 10:40:59;;;;;;;11.10;4.75;;;36.20;92.00;;;;;;5123801;27;20034;-57
2022/07/04 10:43:25;;;;;;;9.05;5.07;;;36.70;91.90;;;;;;5128145;27;20064;-57
2022/07/04 10:45:52;;;;;;;9.88;4.45;;;36.30;91.20;;;;;;5126405;27;20042;-59
2022/07/04 10:48:24;;;;;;;7.22;4.15;;;36.30;90.80;;;;;;5120041;27;20042;-57
2022/07/04 10:51:03;;;;;;;8.30;5.05;;;36.50;91.40;;;;;;5129093;27;20530;-55
2022/07/04 10:53:29;;;;;;;7.43;4.90;;;36.70;92.10;;;;;;5121968;27;20103;-57
2022/07/04 10:56:18;;;;;;;8.38;4.82;;;36.50;90.90;;;;;;5127498;27;20356;-58
2022/07/04 10:58:44;;;;;;;7.93;4.63;;;36.20;90.60;;;;;;5052061;28;20596;-56
2022/07/04 11:01:17;;;;;;;8.57;4.88;;;36.80;91.00;;;;;;5056144;28;20139;-56
2022/07/04 11:03:53;;;;;;;7.13;4.72;;;37.10;90.60;;;;;;5052148;28;20102;-56
2022/07/04 11:06:37;;;;;;;7.05;5.70;;;37.00;90.30;;;;;;5048975;28;20033;-55
2022/07/04 11:09:23;;;;;;;12.93;5.50;;;36.60;90.20;;;;;;5044077;28;20143;-54
2022/07/04 11:11:57;;;;;;;10.05;6.18;;;36.80;90.30;;;;;;5037773;28;20065;-54
2022/07/04 11:14:35;;;;;;;10.07;5.28;;;36.90;89.80;;;;;;5048484;28;20044;-57
2022/07/04 11:17:01;;;;;;;8.55;4.93;;;;;;;;;;5050961;28;20036;-57
2022/07/04 11:19:27;;;;;;;9.93;5.70;;;37.70;95.30;;;;;;5048630;28;20033;-55
2022/07/04 11:21:57;;;;;;;10.32;5.93;;;37.80;90.40;;;;;;5045096;28;20083;-57
2022/07/04 11:24:24;;;;;;;12.57;6.95;;;38.00;94.50;;;;;;5049415;28;20124;-54
2022/07/04 11:26:50;;;;;;;8.90;5.45;;;;;;;;;;5049838;28;20045;-59
2022/07/04 11:29:17;;;;;;;12.18;6.03;;;;;;;;;;5048993;28;20048;-57
2022/07/04 11:31:44;;;;;;;7.80;5.82;;;;;;;;;;5049962;28;20119;-58
2022/07/04 11:34:10;;;;;;;8.02;5.70;;;;;;;;;;5054169;28;20715;-56
2022/07/04 11:36:38;;;;;;;13.25;5.72;;;;;;;;;;5113044;27;20574;-54
2022/07/04 11:39:18;;;;;;;10.60;5.25;;;38.80;99.90;;;;;;5124684;27;20389;-59
2022/07/04 11:47:41;;;;;;;8.45;5.20;;;38.70;90.90;;;;;;5119261;27;20026;-57
2022/07/04 11:50:14;;;;;;;9.68;6.38;;;38.60;88.40;;;;;;5127028;27;20035;-57
2022/07/04 11:52:43;;;;;;;10.40;5.35;;;38.20;89.50;;;;;;5118598;27;20059;-55
2022/07/04 11:55:11;;;;;;;12.45;7.00;;;38.20;89.40;;;;;;5128388;27;20051;-55
2022/07/04 11:57:39;;;;;;;10.05;6.00;;;38.50;89.70;;;;;;5064956;28;20056;-57
2022/07/04 12:00:08;;;;;;;7.03;5.50;;;38.40;88.40;;;;;;5052277;28;20136;-59
2022/07/04 12:02:34;;;;;;;10.88;5.55;;;38.60;89.10;;;;;;5063910;28;20044;-58
2022/07/04 12:05:03;;;;;;;6.65;5.60;;;39.00;90.00;;;;;;5062454;28;20116;-59
2022/07/04 12:07:33;;;;;;;14.57;6.20;;;39.20;90.20;;;;;;5061045;28;20037;-54
2022/07/04 12:10:17;;;;;;;7.47;5.43;;;38.90;90.00;;;;;;5066183;28;20135;-55
2022/07/04 12:12:57;;;;;;;9.20;6.65;;;37.90;88.10;;;;;;4983052;28;20038;-55
2022/07/04 12:15:24;;;;;;;8.32;5.53;;;38.00;95.10;;;;;;5008219;28;20044;-56
2022/07/04 12:17:54;;;;;;;7.20;5.50;;;38.00;95.40;;;;;;5009454;28;20037;-56
2022/07/04 12:20:23;;;;;;;12.10;6.35;;;37.80;94.80;;;;;;5008602;28;20034;-57
2022/07/04 12:22:57;;;;;;;10.95;5.80;;;38.60;97.20;;;;;;5004377;28;20442;-58
2022/07/04 12:25:24;;;;;;;10.65;5.90;;;;;;;;;;5009539;28;20367;-57
2022/07/04 12:28:06;;;;;;;8.38;5.43;;;38.40;88.90;;;;;;5018832;28;20106;-54
2022/07/04 12:30:36;;;;;;;8.77;6.22;;;38.20;89.20;;;;;;5064769;28;20150;-57
2022/07/04 12:33:04;;;;;;;11.70;6.00;;;38.10;87.70;;;;;;5065645;28;20037;-55
2022/07/04 12:35:33;;;;;;;8.68;5.38;;;38.00;87.50;;;;;;5065840;28;20103;-54
2022/07/04 12:38:08;;;;;;;10.13;5.80;;;38.20;86.60;;;;;;5064297;28;20084;-54
2022/07/04 12:40:36;;;;;;;7.15;5.00;;;38.30;85.90;;;;;;5067974;28;20420;-57
2022/07/04 12:43:02;;;;;;;9.73;6.05;;;38.40;87.30;;;;;;5081267;27;20114;-56
2022/07/04 12:45:48;;;;;;;9.35;5.47;;;38.20;85.00;;;;;;5130058;27;20038;-55
2022/07/04 12:48:24;;;;;;;9.27;5.00;;;38.70;87.40;;;;;;5124773;27;20057;-51
2022/07/04 12:50:51;;;;;;;12.45;5.72;;;39.10;86.40;;;;;;5094837;27;20042;-55
2022/07/04 12:53:17;;;;;;;8.57;5.95;;;39.30;84.20;;;;;;5093897;27;20031;-53
2022/07/04 12:55:45;;;;;;;13.35;5.78;;;39.30;84.50;;;;;;5122303;27;20058;-54
2022/07/04 12:58:11;;;;;;;7.60;5.60;;;38.90;83.30;;;;;;5125274;27;20051;-56
2022/07/04 13:00:38;;;;;;;8.65;6.30;;;38.50;83.10;;;;;;5112411;27;20089;-56
2022/07/04 13:03:04;;;;;;;12.07;6.15;;;39.00;84.00;;;;;;5122617;27;20590;-54
2022/07/04 13:05:33;;;;;;;8.25;5.80;;;39.10;85.00;;;;;;5125787;27;20038;-56
2022/07/04 13:07:58;;;;;;;8.18;5.60;;;39.20;84.10;;;;;;5078261;28;20466;-56
2022/07/04 13:10:24;;;;;;;7.72;5.40;;;39.30;82.30;;;;;;5076330;28;20088;-50
2022/07/04 13:12:50;;;;;;;10.80;5.47;;;39.60;82.50;;;;;;5079204;28;20044;-58
2022/07/04 13:15:16;;;;;;;6.70;5.20;;;39.40;81.40;;;;;;5086181;28;20081;-55
2022/07/04 13:17:42;;;;;;;8.07;5.60;;;39.40;80.30;;;;;;5057118;28;20445;-56
2022/07/04 13:20:09;;;;;;;10.77;7.07;;;38.70;80.00;;;;;;5080265;28;20111;-56
2022/07/04 13:22:34;;;;;;;10.27;7.78;;;38.80;81.70;;;;;;5058835;28;20511;-57
2022/07/04 13:25:03;;;;;;;8.13;5.57;;;39.00;82.00;;;;;;5068442;28;20072;-54
2022/07/04 13:27:29;;;;;;;8.35;6.05;;;39.20;81.40;;;;;;5070580;28;20477;-55
2022/07/04 13:29:55;;;;;;;7.40;5.28;;;39.20;79.40;;;;;;5066951;28;20044;-57
2022/07/04 13:32:21;;;;;;;8.65;5.05;;;39.30;81.10;;;;;;5068881;28;20039;-55
2022/07/04 13:34:47;;;;;;;10.15;5.22;;;39.10;79.60;;;;;;5066109;28;20105;-57